createdAt,value
2022-12-17T00:01:31.261Z,49.20
2022-12-17T00:03:33.271Z,49.20
2022-12-17T00:05:35.334Z,49.20
2022-12-17T00:07:37.181Z,49.20
2022-12-17T00:09:39.817Z,49.20
2022-12-17T00:11:41.528Z,49.20
2022-12-17T00:13:43.296Z,49.20
2022-12-17T00:15:50.325Z,49.10
2022-12-17T00:17:52.188Z,49.20
2022-12-17T00:19:53.902Z,49.20
2022-12-17T00:21:59.235Z,49.10
2022-12-17T00:24:00.952Z,49.00
2022-12-17T00:26:02.806Z,49.00
2022-12-17T00:28:09.048Z,49.10
2022-12-17T00:30:12.835Z,49.10
2022-12-17T00:32:14.596Z,49.10
2022-12-17T00:34:16.400Z,49.00
2022-12-17T00:36:18.124Z,49.00
2022-12-17T00:38:21.171Z,49.00
2022-12-17T00:40:23.377Z,49.10
2022-12-17T00:42:25.220Z,49.00
2022-12-17T00:44:27.000Z,49.00
2022-12-17T00:46:28.817Z,49.00
2022-12-17T00:48:30.817Z,49.00
2022-12-17T00:50:32.992Z,49.00
2022-12-17T00:52:34.750Z,49.00
2022-12-17T00:54:36.578Z,49.00
2022-12-17T00:56:38.304Z,49.00
2022-12-17T00:58:40.605Z,48.90
2022-12-17T01:00:43.032Z,48.90
2022-12-17T01:02:44.965Z,49.00
2022-12-17T01:04:47.773Z,48.90
2022-12-17T01:06:49.567Z,49.00
2022-12-17T01:08:51.376Z,48.90
2022-12-17T01:10:53.187Z,49.00
2022-12-17T01:12:57.968Z,49.00
2022-12-17T01:14:59.792Z,48.90
2022-12-17T01:17:01.515Z,48.90
2022-12-17T01:19:03.288Z,48.80
2022-12-17T01:21:05.063Z,48.80
2022-12-17T01:23:07.582Z,48.70
2022-12-17T01:25:09.608Z,48.70
2022-12-17T01:27:11.581Z,48.70
2022-12-17T01:29:13.316Z,48.70
2022-12-17T01:31:15.625Z,48.70
2022-12-17T01:33:17.404Z,48.70
2022-12-17T01:35:19.392Z,48.60
2022-12-17T01:37:21.113Z,48.60
2022-12-17T01:39:22.959Z,48.60
2022-12-17T01:41:24.687Z,48.60
2022-12-17T01:43:37.208Z,48.60
2022-12-17T01:45:49.616Z,48.60
2022-12-17T01:47:58.249Z,48.50
2022-12-17T01:49:59.988Z,48.50
2022-12-17T01:52:02.477Z,48.50
2022-12-17T01:54:04.473Z,48.50
2022-12-17T01:56:06.603Z,48.40
2022-12-17T01:58:08.395Z,48.50
2022-12-17T02:00:11.788Z,48.50
2022-12-17T02:02:16.367Z,48.30
2022-12-17T02:04:18.345Z,48.30
2022-12-17T02:06:27.623Z,48.40
2022-12-17T02:08:29.399Z,48.40
2022-12-17T02:10:52.833Z,48.40
2022-12-17T02:13:02.088Z,48.30
2022-12-17T02:15:16.683Z,48.30
2022-12-17T02:17:21.212Z,48.30
2022-12-17T02:19:41.638Z,48.30
2022-12-17T02:21:46.368Z,48.30
2022-12-17T02:23:49.321Z,48.30
2022-12-17T02:25:54.967Z,48.30
2022-12-17T02:27:57.292Z,48.20
2022-12-17T02:30:06.507Z,48.20
2022-12-17T02:32:10.546Z,48.20
2022-12-17T02:34:13.078Z,48.20
2022-12-17T02:36:14.960Z,48.30
2022-12-17T02:38:20.916Z,48.20
2022-12-17T02:40:23.503Z,48.20
2022-12-17T02:42:26.400Z,48.20
2022-12-17T02:44:30.067Z,48.10
2022-12-17T02:46:33.220Z,48.20
2022-12-17T02:48:35.051Z,48.10
2022-12-17T02:50:37.150Z,48.10
2022-12-17T02:52:40.391Z,48.10
2022-12-17T02:54:42.192Z,48.10
2022-12-17T02:56:43.921Z,48.00
2022-12-17T02:58:45.729Z,48.00
2022-12-17T03:00:48.417Z,48.00
2022-12-17T03:02:50.419Z,48.00
2022-12-17T03:04:52.304Z,48.00
2022-12-17T03:06:54.094Z,48.00
2022-12-17T03:08:56.593Z,48.00
2022-12-17T03:10:58.543Z,48.00
2022-12-17T03:13:00.284Z,48.00
2022-12-17T03:15:02.113Z,47.90
2022-12-17T03:17:03.890Z,48.00
2022-12-17T03:19:05.744Z,47.90
2022-12-17T03:21:07.503Z,47.90
2022-12-17T03:23:10.196Z,47.90
2022-12-17T03:25:11.941Z,47.90
2022-12-17T03:27:14.041Z,47.80
2022-12-17T03:29:15.764Z,47.90
2022-12-17T03:31:18.526Z,48.10
2022-12-17T03:33:20.274Z,48.00
2022-12-17T03:35:22.080Z,47.90
2022-12-17T03:37:23.797Z,48.00
2022-12-17T03:39:25.556Z,48.00
2022-12-17T03:41:27.786Z,47.80
2022-12-17T03:43:29.590Z,47.80
2022-12-17T03:45:31.294Z,48.40
2022-12-17T03:47:33.093Z,47.80
2022-12-17T03:49:34.879Z,47.80
2022-12-17T03:51:36.659Z,47.90
2022-12-17T03:53:38.894Z,47.90
2022-12-17T03:55:41.117Z,48.50
2022-12-17T03:57:42.835Z,47.90
2022-12-17T03:59:44.667Z,48.00
2022-12-17T04:01:46.472Z,48.10
2022-12-17T04:03:48.508Z,48.10
2022-12-17T04:05:50.284Z,48.10
2022-12-17T04:07:52.079Z,48.20
2022-12-17T04:09:53.819Z,48.20
2022-12-17T04:11:55.597Z,48.20
2022-12-17T04:13:57.315Z,48.20
2022-12-17T04:15:59.207Z,48.20
2022-12-17T04:18:00.947Z,48.20
2022-12-17T04:20:02.846Z,48.20
2022-12-17T04:22:05.215Z,48.10
2022-12-17T04:24:07.124Z,48.20
2022-12-17T04:26:08.882Z,48.10
2022-12-17T04:28:10.712Z,48.20
2022-12-17T04:30:12.485Z,48.30
2022-12-17T04:32:14.333Z,48.30
2022-12-17T04:34:16.095Z,48.30
2022-12-17T04:40:42.391Z,48.30
2022-12-17T04:42:45.533Z,47.80
2022-12-17T04:44:47.549Z,47.80
2022-12-17T04:46:49.578Z,47.70
2022-12-17T04:48:51.645Z,47.80
2022-12-17T04:50:54.285Z,47.70
2022-12-17T04:53:02.731Z,48.10
2022-12-17T04:55:05.005Z,48.20
2022-12-17T04:57:07.079Z,47.90
2022-12-17T05:01:26.407Z,47.70
2022-12-17T05:03:28.371Z,48.40
2022-12-17T05:05:30.276Z,48.40
2022-12-17T05:07:32.080Z,48.30
2022-12-17T05:09:33.835Z,48.40
2022-12-17T05:11:35.652Z,48.30
2022-12-17T05:13:37.622Z,48.40
2022-12-17T05:15:39.688Z,48.30
2022-12-17T05:17:42.541Z,48.40
2022-12-17T05:19:44.462Z,48.50
2022-12-17T05:21:46.167Z,48.50
2022-12-17T05:23:47.953Z,48.40
2022-12-17T05:25:49.681Z,48.40
2022-12-17T05:27:51.489Z,48.40
2022-12-17T05:29:53.283Z,48.50
2022-12-17T05:31:55.043Z,48.40
2022-12-17T05:33:56.775Z,48.50
2022-12-17T05:36:02.041Z,48.40
2022-12-17T05:38:04.656Z,48.40
2022-12-17T05:40:12.395Z,48.40
2022-12-17T05:42:14.544Z,48.40
2022-12-17T05:44:16.375Z,48.40
2022-12-17T05:46:18.144Z,48.40
2022-12-17T05:48:19.983Z,48.40
2022-12-17T05:50:21.692Z,48.40
2022-12-17T05:52:23.556Z,48.50
2022-12-17T05:54:25.331Z,48.50
2022-12-17T05:56:27.123Z,48.40
2022-12-17T05:58:28.847Z,48.30
2022-12-17T06:00:30.732Z,48.40
2022-12-17T06:02:32.515Z,48.40
2022-12-17T06:04:34.333Z,48.40
2022-12-17T06:06:36.072Z,48.40
2022-12-17T06:08:37.897Z,48.30
2022-12-17T06:10:39.622Z,48.40
2022-12-17T06:12:41.563Z,48.40
2022-12-17T06:14:43.287Z,48.30
2022-12-17T06:16:45.173Z,48.50
2022-12-17T06:18:46.911Z,48.60
2022-12-17T06:20:48.675Z,48.60
2022-12-17T06:23:00.196Z,48.60
2022-12-17T06:25:02.054Z,48.60
2022-12-17T06:27:03.839Z,48.60
2022-12-17T06:29:05.865Z,48.50
2022-12-17T06:31:10.505Z,48.40
2022-12-17T06:33:12.581Z,48.40
2022-12-17T06:35:14.349Z,48.40
2022-12-17T06:37:16.163Z,48.40
2022-12-17T06:39:17.864Z,48.30
2022-12-17T06:41:19.688Z,48.90
2022-12-17T06:43:21.442Z,48.40
2022-12-17T06:45:23.234Z,48.30
2022-12-17T06:47:25.009Z,48.30
2022-12-17T06:49:26.835Z,48.40
2022-12-17T06:51:28.548Z,48.40
2022-12-17T06:53:30.348Z,48.90
2022-12-17T06:55:32.089Z,48.30
2022-12-17T06:57:40.372Z,48.30
2022-12-17T06:59:42.922Z,48.40
2022-12-17T07:01:44.900Z,48.40
2022-12-17T07:03:46.807Z,48.40
2022-12-17T07:05:48.638Z,48.40
2022-12-17T07:07:56.201Z,48.40
2022-12-17T07:09:58.903Z,48.40
2022-12-17T07:12:00.848Z,48.40
2022-12-17T07:14:02.918Z,48.40
2022-12-17T07:16:04.704Z,48.50
2022-12-17T07:18:06.509Z,48.40
2022-12-17T07:20:10.000Z,48.50
2022-12-17T07:22:11.792Z,48.50
2022-12-17T07:24:13.489Z,48.50
2022-12-17T07:26:15.306Z,48.50
2022-12-17T07:28:17.052Z,48.40
2022-12-17T07:30:19.120Z,48.50
2022-12-17T07:32:20.875Z,48.50
2022-12-17T07:34:22.636Z,48.50
2022-12-17T07:36:24.344Z,48.50
2022-12-17T07:38:27.152Z,48.50
2022-12-17T07:40:28.866Z,48.50
2022-12-17T07:42:30.665Z,48.50
2022-12-17T07:44:32.494Z,48.50
2022-12-17T07:46:34.325Z,48.50
2022-12-17T07:48:36.053Z,48.40
2022-12-17T07:50:37.913Z,48.40
2022-12-17T07:52:39.653Z,48.50
2022-12-17T07:54:41.473Z,48.50
2022-12-17T07:56:43.532Z,48.50
2022-12-17T07:58:45.318Z,48.50
2022-12-17T08:00:49.472Z,48.50
2022-12-17T08:02:56.616Z,48.50
2022-12-17T08:04:58.514Z,48.50
2022-12-17T08:07:05.535Z,48.60
2022-12-17T08:09:10.599Z,48.50
2022-12-17T08:11:12.467Z,46.60
2022-12-17T08:13:29.213Z,45.60
2022-12-17T08:17:59.127Z,49.40
2022-12-17T08:20:01.136Z,48.80
2022-12-17T08:22:02.924Z,48.80
2022-12-17T08:24:05.901Z,48.70
2022-12-17T08:26:07.630Z,48.30
2022-12-17T08:28:15.755Z,48.20
2022-12-17T08:30:22.797Z,48.30
2022-12-17T08:32:24.674Z,48.20
2022-12-17T08:34:26.514Z,48.10
2022-12-17T08:36:28.389Z,48.00
2022-12-17T08:38:30.106Z,48.00
2022-12-17T09:19:46.754Z,51.60
2022-12-17T09:21:48.800Z,50.60
2022-12-17T09:23:50.625Z,50.20
2022-12-17T09:25:58.022Z,49.50
2022-12-17T09:28:00.945Z,49.20
2022-12-17T09:30:03.369Z,48.90
2022-12-17T09:32:05.108Z,48.90
2022-12-17T09:34:06.921Z,49.10
2022-12-17T09:36:08.902Z,49.50
2022-12-17T09:38:14.325Z,49.70
2022-12-17T09:40:21.149Z,49.80
2022-12-17T09:43:02.462Z,50.10
2022-12-17T09:45:16.725Z,50.00
2022-12-17T09:47:37.260Z,50.20
2022-12-17T09:49:39.074Z,50.40
2022-12-17T09:51:40.888Z,50.10
2022-12-17T09:53:45.296Z,50.10
2022-12-17T09:55:49.536Z,48.50
2022-12-17T09:57:54.897Z,50.70
2022-12-17T09:59:58.073Z,50.20
2022-12-17T10:02:02.228Z,50.60
2022-12-17T10:04:06.661Z,49.90
2022-12-17T10:06:10.209Z,50.30
2022-12-17T10:08:13.986Z,50.20
2022-12-17T10:12:54.250Z,50.10
2022-12-17T10:14:55.999Z,50.00
2022-12-17T10:17:04.837Z,49.80
2022-12-17T10:19:39.855Z,49.80
2022-12-17T10:21:43.686Z,49.60
2022-12-17T10:23:45.592Z,49.80
2022-12-17T10:25:50.995Z,49.70
2022-12-17T10:27:52.840Z,49.80
2022-12-17T10:29:54.977Z,49.70
2022-12-17T10:32:08.185Z,49.80
2022-12-17T10:34:14.970Z,49.80
2022-12-17T10:36:21.095Z,49.70
2022-12-17T10:38:30.270Z,49.70
2022-12-17T10:40:33.072Z,49.80
2022-12-17T10:42:38.961Z,49.80
2022-12-17T10:44:40.714Z,49.90
2022-12-17T10:46:42.774Z,49.90
2022-12-17T10:48:44.629Z,49.90
2022-12-17T10:50:46.464Z,49.80
2022-12-17T10:52:48.586Z,49.80
2022-12-17T10:55:01.631Z,49.90
2022-12-17T10:57:03.450Z,50.00
2022-12-17T10:59:11.488Z,49.80
2022-12-17T11:01:19.325Z,50.10
2022-12-17T11:03:27.130Z,50.10
2022-12-17T11:05:30.720Z,50.10
2022-12-17T11:07:42.969Z,50.10
2022-12-17T11:09:49.320Z,50.00
2022-12-17T11:11:51.606Z,50.10
2022-12-17T11:13:55.502Z,50.10
2022-12-17T11:15:58.298Z,50.10
2022-12-17T11:18:13.336Z,50.10
2022-12-17T11:20:22.963Z,50.00
2022-12-17T11:22:33.768Z,49.90
2022-12-17T11:24:46.685Z,50.30
2022-12-17T11:26:50.766Z,49.80
2022-12-17T11:28:52.608Z,50.30
2022-12-17T11:30:58.120Z,50.20
2022-12-17T11:33:11.817Z,50.50
2022-12-17T11:35:23.628Z,50.10
2022-12-17T11:37:30.631Z,50.10
2022-12-17T11:39:40.865Z,50.20
2022-12-17T11:41:59.989Z,50.50
2022-12-17T11:50:00.219Z,51.00
2022-12-17T11:52:08.949Z,50.50
2022-12-17T11:54:29.522Z,50.40
2022-12-17T11:56:42.429Z,50.60
2022-12-17T11:59:02.766Z,50.70
2022-12-17T12:03:51.017Z,50.90
2022-12-17T12:08:10.873Z,50.80
2022-12-17T12:10:34.381Z,50.70
2022-12-17T12:12:55.086Z,50.50
2022-12-17T12:15:00.296Z,45.20
2022-12-17T12:17:20.541Z,46.30
2022-12-17T12:19:35.414Z,48.30
2022-12-17T12:21:39.423Z,48.90
2022-12-17T12:23:47.348Z,49.20
2022-12-17T12:25:49.049Z,49.40
2022-12-17T12:27:56.787Z,49.30
2022-12-17T12:29:58.543Z,49.50
2022-12-17T12:32:09.257Z,49.30
2022-12-17T12:34:22.917Z,49.60
2022-12-17T12:36:25.469Z,49.80
2022-12-17T12:38:30.375Z,49.70
2022-12-17T12:40:46.357Z,49.90
2022-12-17T12:43:00.520Z,50.10
2022-12-17T12:45:37.634Z,50.00
2022-12-17T12:47:57.541Z,50.20
2022-12-17T12:50:03.360Z,50.30
2022-12-17T12:52:05.377Z,50.20
2022-12-17T12:54:27.245Z,50.10
2022-12-17T12:56:36.238Z,50.20
2022-12-17T12:58:38.470Z,50.20
2022-12-17T13:00:51.424Z,50.00
2022-12-17T13:02:53.538Z,50.10
2022-12-17T13:04:57.337Z,50.00
2022-12-17T13:06:59.173Z,49.90
2022-12-17T13:09:04.925Z,49.70
2022-12-17T13:11:27.277Z,49.80
2022-12-17T13:13:36.172Z,49.70
2022-12-17T13:15:41.169Z,49.60
2022-12-17T13:17:44.960Z,49.50
2022-12-17T13:19:58.437Z,49.50
2022-12-17T13:22:20.250Z,49.50
2022-12-17T13:24:26.811Z,49.40
2022-12-17T13:26:43.045Z,49.40
2022-12-17T13:29:23.607Z,49.40
2022-12-17T13:31:27.099Z,49.20
2022-12-17T13:33:47.280Z,49.30
2022-12-17T13:35:55.388Z,49.40
2022-12-17T13:38:03.835Z,49.40
2022-12-17T13:40:23.098Z,49.30
2022-12-17T13:42:25.010Z,49.30
2022-12-17T13:44:40.171Z,49.10
2022-12-17T13:46:46.926Z,49.20
2022-12-17T13:49:00.237Z,49.10
2022-12-17T13:51:04.549Z,49.20
2022-12-17T13:53:09.834Z,49.20
2022-12-17T13:55:22.982Z,49.20
2022-12-17T13:57:25.578Z,49.20
2022-12-17T13:59:27.320Z,49.10
2022-12-17T14:01:30.113Z,49.00
2022-12-17T14:03:57.049Z,49.10
2022-12-17T14:05:53.962Z,49.20
2022-12-17T14:07:58.429Z,49.20
2022-12-17T14:10:00.837Z,49.30
2022-12-17T14:12:06.385Z,49.20
2022-12-17T14:14:11.392Z,49.20
2022-12-17T14:16:19.804Z,49.10
2022-12-17T14:18:21.899Z,49.20
2022-12-17T14:20:25.216Z,49.20
2022-12-17T14:22:32.709Z,49.20
2022-12-17T14:24:34.582Z,49.30
2022-12-17T14:26:46.881Z,49.20
2022-12-17T14:28:53.766Z,49.30
2022-12-17T14:33:32.540Z,49.30
2022-12-17T14:35:35.618Z,49.30
2022-12-17T14:37:37.537Z,49.30
2022-12-17T14:39:43.833Z,49.20
2022-12-17T14:41:45.778Z,49.30
2022-12-17T14:43:54.583Z,49.30
2022-12-17T14:45:59.831Z,49.40
2022-12-17T14:48:02.328Z,49.40
2022-12-17T14:50:07.460Z,49.30
2022-12-17T14:52:13.591Z,49.30
2022-12-17T14:54:24.449Z,49.40
2022-12-17T14:56:29.022Z,49.40
2022-12-17T14:58:31.407Z,49.40
2022-12-17T15:00:33.580Z,49.40
2022-12-17T15:02:36.842Z,49.50
2022-12-17T15:04:39.150Z,49.40
2022-12-17T15:06:41.137Z,49.50
2022-12-17T15:08:44.768Z,49.40
2022-12-17T15:10:46.796Z,49.50
2022-12-17T15:12:48.778Z,49.40
2022-12-17T15:14:50.810Z,49.40
2022-12-17T15:16:52.720Z,49.40
2022-12-17T15:18:54.766Z,49.40
2022-12-17T15:20:57.806Z,49.50
2022-12-17T15:23:01.007Z,49.20
2022-12-17T15:25:02.824Z,48.90
2022-12-17T15:27:04.758Z,48.80
2022-12-17T15:29:06.644Z,48.80
2022-12-17T15:31:11.808Z,48.70
2022-12-17T15:33:13.701Z,48.60
2022-12-17T15:35:15.757Z,48.60
2022-12-17T15:37:23.944Z,48.50
2022-12-17T15:39:27.594Z,48.50
2022-12-17T15:41:29.479Z,48.50
2022-12-17T15:43:31.360Z,48.50
2022-12-17T15:45:33.498Z,48.40
2022-12-17T15:47:35.511Z,48.50
2022-12-17T15:49:38.862Z,48.40
2022-12-17T15:51:40.750Z,48.40
2022-12-17T15:53:42.600Z,48.40
2022-12-17T15:55:45.864Z,48.30
2022-12-17T15:57:47.668Z,48.30
2022-12-17T15:59:50.792Z,48.20
2022-12-17T16:01:52.901Z,48.10
2022-12-17T16:03:54.998Z,48.00
2022-12-17T16:06:00.564Z,48.10
2022-12-17T16:08:02.791Z,48.10
2022-12-17T16:10:05.849Z,48.00
2022-12-17T16:12:07.804Z,48.00
2022-12-17T16:14:09.706Z,48.00
2022-12-17T16:16:14.805Z,48.10
2022-12-17T16:18:16.713Z,48.10
2022-12-17T16:20:18.713Z,48.00
2022-12-17T16:22:20.526Z,48.00
2022-12-17T16:24:22.390Z,48.00
2022-12-17T16:26:24.169Z,48.00
2022-12-17T16:28:26.597Z,48.00
2022-12-17T16:30:28.386Z,48.00
2022-12-17T16:32:35.968Z,48.00
2022-12-17T16:34:38.343Z,48.00
2022-12-17T16:36:42.589Z,47.80
2022-12-17T16:38:44.964Z,47.70
2022-12-17T16:40:46.869Z,47.70
2022-12-17T16:42:48.641Z,47.70
2022-12-17T16:44:50.455Z,47.70
2022-12-17T16:46:52.331Z,47.80
2022-12-17T16:48:55.412Z,47.90
2022-12-17T16:50:57.225Z,47.60
2022-12-17T16:52:59.033Z,47.50
2022-12-17T16:55:00.794Z,47.60
2022-12-17T16:57:02.874Z,47.70
2022-12-17T16:59:05.205Z,47.70
2022-12-17T17:01:07.122Z,47.70
2022-12-17T17:03:09.656Z,48.20
2022-12-17T17:05:11.764Z,47.50
2022-12-17T17:07:13.580Z,47.60
2022-12-17T17:09:15.922Z,47.60
2022-12-17T17:11:19.057Z,47.60
2022-12-17T17:13:20.976Z,47.50
2022-12-17T17:15:22.772Z,47.40
2022-12-17T17:17:54.919Z,47.50
2022-12-17T17:19:46.417Z,47.40
2022-12-17T17:21:49.477Z,47.40
2022-12-17T17:23:57.343Z,47.60
2022-12-17T17:25:59.244Z,47.40
2022-12-17T17:28:01.171Z,47.30
2022-12-17T17:30:04.167Z,47.20
2022-12-17T17:32:11.015Z,47.30
2022-12-17T17:34:14.876Z,47.30
2022-12-17T17:36:18.798Z,47.50
2022-12-17T17:38:21.634Z,47.40
2022-12-17T17:40:23.508Z,47.30
2022-12-17T17:42:26.544Z,47.30
2022-12-17T17:44:28.644Z,47.30
2022-12-17T17:46:30.831Z,47.20
2022-12-17T17:48:34.653Z,47.20
2022-12-17T17:50:36.768Z,47.20
2022-12-17T17:52:38.569Z,47.10
2022-12-17T17:54:40.507Z,47.00
2022-12-17T17:56:42.717Z,47.00
2022-12-17T17:58:46.185Z,47.20
2022-12-17T18:00:48.013Z,47.20
2022-12-17T18:02:51.285Z,47.10
2022-12-17T18:04:53.202Z,47.20
2022-12-17T18:09:18.035Z,47.20
2022-12-17T18:11:23.291Z,47.10
2022-12-17T18:13:25.827Z,47.10
2022-12-17T18:15:27.715Z,47.20
2022-12-17T18:17:29.658Z,47.10
2022-12-17T18:19:31.490Z,47.00
2022-12-17T18:21:33.834Z,47.00
2022-12-17T18:23:37.285Z,47.10
2022-12-17T18:25:39.115Z,47.10
2022-12-17T18:27:40.929Z,46.90
2022-12-17T18:29:43.403Z,46.90
2022-12-17T18:31:51.362Z,46.90
2022-12-17T18:33:55.752Z,47.00
2022-12-17T18:35:57.613Z,47.00
2022-12-17T18:37:59.468Z,47.00
2022-12-17T18:40:01.410Z,47.00
2022-12-17T18:42:03.186Z,46.90
2022-12-17T18:44:06.062Z,46.80
2022-12-17T18:46:07.869Z,46.90
2022-12-17T18:48:09.789Z,46.80
2022-12-17T18:50:12.365Z,46.70
2022-12-17T18:52:17.118Z,46.90
2022-12-17T18:54:23.699Z,46.80
2022-12-17T18:56:52.466Z,46.70
2022-12-17T18:58:48.299Z,46.70
2022-12-17T19:00:50.166Z,46.70
2022-12-17T19:02:52.069Z,46.80
2022-12-17T19:04:53.961Z,46.60
2022-12-17T19:06:55.823Z,46.70
2022-12-17T19:08:57.619Z,46.70
2022-12-17T19:11:03.481Z,46.70
2022-12-17T19:13:06.384Z,46.70
2022-12-17T19:15:08.448Z,46.60
2022-12-17T19:17:10.257Z,46.60
2022-12-17T19:19:12.655Z,46.70
2022-12-17T19:21:14.463Z,46.70
2022-12-17T19:23:16.200Z,46.60
2022-12-17T19:25:18.122Z,46.70
2022-12-17T19:27:19.855Z,46.70
2022-12-17T19:29:22.475Z,46.60
2022-12-17T19:31:26.263Z,46.50
2022-12-17T19:33:28.119Z,46.50
2022-12-17T19:35:29.842Z,46.60
2022-12-17T19:37:31.694Z,46.70
2022-12-17T19:39:33.408Z,46.70
2022-12-17T19:41:36.272Z,46.60
2022-12-17T19:43:38.308Z,46.60
2022-12-17T19:45:40.202Z,46.50
2022-12-17T19:47:41.973Z,46.60
2022-12-17T19:49:43.844Z,46.50
2022-12-17T19:51:45.566Z,46.50
2022-12-17T19:53:47.553Z,46.50
2022-12-17T19:55:49.329Z,46.50
2022-12-17T19:57:51.095Z,46.50
2022-12-17T19:59:52.826Z,46.40
2022-12-17T20:01:54.849Z,46.50
2022-12-17T20:03:56.816Z,46.50
2022-12-17T20:05:58.731Z,46.50
2022-12-17T20:08:00.550Z,46.40
2022-12-17T20:10:02.422Z,46.50
2022-12-17T20:12:04.236Z,46.50
2022-12-17T20:14:06.048Z,46.50
2022-12-17T20:16:08.067Z,46.50
2022-12-17T20:18:09.997Z,46.50
2022-12-17T20:20:11.844Z,46.40
2022-12-17T20:22:13.628Z,46.30
2022-12-17T20:24:16.017Z,46.40
2022-12-17T20:26:18.547Z,46.40
2022-12-17T20:28:20.297Z,46.50
2022-12-17T20:30:22.257Z,46.60
2022-12-17T20:32:24.040Z,46.90
2022-12-17T20:34:25.858Z,46.90
2022-12-17T20:36:27.780Z,47.00
2022-12-17T20:38:30.816Z,47.00
2022-12-17T20:40:32.537Z,47.10
2022-12-17T20:42:34.329Z,47.00
2022-12-17T20:44:36.079Z,47.10
2022-12-17T20:46:37.895Z,47.10
2022-12-17T20:48:40.911Z,47.10
2022-12-17T20:50:43.280Z,47.20
2022-12-17T20:52:45.101Z,47.20
2022-12-17T20:54:47.065Z,47.20
2022-12-17T20:56:48.835Z,47.30
2022-12-17T20:58:55.137Z,47.30
2022-12-17T21:01:04.205Z,47.30
2022-12-17T21:03:06.319Z,47.40
2022-12-17T21:05:08.314Z,47.30
2022-12-17T21:07:10.124Z,47.40
2022-12-17T21:09:12.743Z,47.40
2022-12-17T21:11:15.061Z,47.40
2022-12-17T21:13:16.790Z,47.40
2022-12-17T21:15:19.799Z,47.40
2022-12-17T21:17:21.575Z,47.40
2022-12-17T21:19:23.387Z,47.40
2022-12-17T21:21:29.158Z,47.40
2022-12-17T21:23:32.730Z,47.40
2022-12-17T21:25:34.489Z,47.50
2022-12-17T21:27:36.338Z,47.40
2022-12-17T21:29:38.112Z,47.50
2022-12-17T21:31:41.152Z,47.50
2022-12-17T21:33:43.196Z,47.50
2022-12-17T21:35:45.336Z,47.50
2022-12-17T21:37:47.099Z,47.50
2022-12-17T21:39:49.682Z,47.60
2022-12-17T21:41:51.443Z,47.50
2022-12-17T21:43:55.464Z,47.50
2022-12-17T21:45:57.839Z,47.60
2022-12-17T21:47:59.677Z,47.50
2022-12-17T21:50:01.427Z,47.60
2022-12-17T21:52:03.526Z,47.50
2022-12-17T21:54:08.592Z,47.50
2022-12-17T21:56:13.043Z,47.50
2022-12-17T21:58:15.285Z,47.60
2022-12-17T22:00:17.541Z,47.60
2022-12-17T22:02:19.738Z,48.20
2022-12-17T22:04:22.010Z,47.60
2022-12-17T22:06:31.334Z,47.60
2022-12-17T22:08:37.492Z,47.60
2022-12-17T22:10:52.633Z,47.60
2022-12-17T22:12:54.508Z,47.60
2022-12-17T22:14:56.289Z,47.60
2022-12-17T22:16:58.659Z,47.60
2022-12-17T22:19:00.849Z,47.60
2022-12-17T22:21:02.683Z,47.60
2022-12-17T22:23:04.439Z,47.60
2022-12-17T22:25:08.616Z,47.60
2022-12-17T22:27:13.096Z,47.60
2022-12-17T22:29:15.288Z,47.60
2022-12-17T22:31:18.127Z,47.60
2022-12-17T22:33:53.357Z,47.60
2022-12-17T22:37:43.959Z,47.70
2022-12-17T22:41:37.481Z,47.70
2022-12-17T22:44:30.355Z,47.70
2022-12-17T22:44:44.736Z,47.70
2022-12-17T22:45:12.171Z,47.70
2022-12-17T22:47:14.651Z,47.70
2022-12-17T22:49:16.816Z,47.70
2022-12-17T22:51:22.594Z,47.70
2022-12-17T22:53:36.256Z,47.70
2022-12-17T22:55:40.237Z,47.80
2022-12-17T22:57:42.100Z,47.60
2022-12-17T22:59:43.927Z,47.60
2022-12-17T23:01:46.841Z,47.70
2022-12-17T23:03:48.806Z,47.70
2022-12-17T23:05:50.682Z,47.70
2022-12-17T23:07:52.703Z,47.80
2022-12-17T23:09:54.414Z,47.80
2022-12-17T23:11:56.203Z,47.80
2022-12-17T23:13:58.100Z,47.80
2022-12-17T23:15:59.953Z,47.70
2022-12-17T23:18:02.707Z,47.70
2022-12-17T23:20:04.940Z,47.70
2022-12-17T23:22:06.652Z,47.70
2022-12-17T23:24:08.874Z,47.70
2022-12-17T23:26:12.230Z,47.70
2022-12-17T23:28:14.009Z,47.70
2022-12-17T23:30:16.752Z,47.70
2022-12-17T23:32:19.185Z,47.70
2022-12-17T23:34:20.896Z,47.70
2022-12-17T23:36:23.993Z,47.70
2022-12-17T23:38:25.755Z,47.80
2022-12-17T23:40:27.580Z,47.70
2022-12-17T23:42:29.296Z,47.70
2022-12-17T23:44:31.166Z,47.70
2022-12-17T23:46:32.960Z,47.70
2022-12-17T23:48:37.360Z,47.70
2022-12-17T23:50:41.279Z,47.70
2022-12-17T23:52:43.060Z,47.80
2022-12-17T23:54:44.767Z,47.80
2022-12-17T23:56:46.648Z,47.80
2022-12-17T23:58:51.792Z,47.80
